Time;durP1;ratioP1;P1;durP2;ratioP2;P2;SDS_P1;SDS_P2;PMS_P1;PMS_P2;Temp;Humidity;BMP_temperature;BMP_pressure;BME280_temperature;BME280_humidity;BME280_pressure;Samples;Min_cycle;Max_cycle;Signal;HPM_P1;HPM_P2
2022/06/02 00:03:08;;;;;;;20.25;12.30;;;;;;;7.37;100.00;101856.47;10242623;28;20138;-86
2022/06/02 00:08:16;;;;;;;26.60;13.77;;;;;;;6.98;100.00;101808.78;10238625;28;20035;-85
2022/06/02 00:13:32;;;;;;;24.67;15.73;;;;;;;7.30;100.00;101855.63;10233708;28;20050;-87
2022/06/02 00:18:56;;;;;;;26.98;15.00;;;;;;;7.31;100.00;101865.53;10306525;28;20074;-88
2022/06/02 00:24:18;;;;;;;25.23;14.63;;;;;;;7.24;100.00;101853.72;10280056;28;20054;-86
2022/06/02 00:29:30;;;;;;;25.25;17.05;;;;;;;7.30;100.00;101862.97;10264552;28;20049;-87
2022/06/02 00:34:42;;;;;;;26.70;15.43;;;;;;;7.35;100.00;101875.00;10281704;28;20050;-86
2022/06/02 00:39:42;;;;;;;26.63;16.70;;;;;;;7.33;100.00;101877.13;10264114;28;20043;-87
2022/06/02 00:45:23;;;;;;;27.75;15.20;;;;;;;7.27;100.00;101872.47;10261359;28;20043;-85
2022/06/02 00:50:45;;;;;;;25.75;15.23;;;;;;;7.18;100.00;101871.00;10223524;28;20047;-88
2022/06/02 01:01:34;;;;;;;24.92;16.02;;;;;;;6.94;100.00;101867.75;10281402;28;20051;-87
2022/06/02 01:06:53;;;;;;;27.48;15.82;;;;;;;6.94;100.00;101880.59;10279863;28;20046;-87
2022/06/02 01:12:08;;;;;;;30.60;18.20;;;;;;;6.93;100.00;101885.25;10297667;28;20121;-87
2022/06/02 01:17:09;;;;;;;33.47;18.25;;;;;;;6.98;100.00;101890.94;10244218;28;20047;-87
2022/06/02 01:22:24;;;;;;;33.05;18.40;;;;;;;6.76;100.00;101853.78;10248547;28;20043;-87
2022/06/02 01:27:28;;;;;;;32.83;18.40;;;;;;;7.01;100.00;101901.50;10269697;28;20065;-86
2022/06/02 01:32:36;;;;;;;35.45;19.40;;;;;;;6.92;100.00;101893.66;10296113;28;20054;-86
2022/06/02 01:37:48;;;;;;;31.60;20.40;;;;;;;6.99;100.00;101902.75;10246559;28;20042;-87
2022/06/02 01:43:03;;;;;;;41.38;23.55;;;;;;;6.99;100.00;101900.84;10262793;28;20407;-86
2022/06/02 01:48:23;;;;;;;41.08;22.73;;;;;;;7.01;100.00;101901.50;10329110;28;20046;-86
2022/06/02 01:53:53;;;;;;;40.10;22.27;;;;;;;7.10;100.00;101893.09;10272725;28;20065;-86
2022/06/02 01:59:02;;;;;;;42.40;22.33;;;;;;;6.63;100.00;101817.13;10249319;28;20046;-87
2022/06/02 02:04:29;;;;;;;38.80;22.17;;;;;;;6.99;100.00;101898.09;10263362;28;20039;-86
2022/06/02 02:09:53;;;;;;;;;;;;;;;6.96;100.00;101906.72;10294303;28;20082;-85
2022/06/02 02:15:01;;;;;;;41.38;24.33;;;;;;;6.94;100.00;101917.03;10265946;28;19922;-85
2022/06/02 02:20:19;;;;;;;41.42;22.40;;;;;;;6.94;100.00;101907.97;10271484;28;20067;-86
2022/06/02 02:25:49;;;;;;;40.88;23.23;;;;;;;6.86;100.00;101896.19;10255125;29;20101;-84
2022/06/02 02:31:25;;;;;;;40.03;24.95;;;;;;;6.94;100.00;101910.72;10237574;28;20050;-83
2022/06/02 02:36:58;;;;;;;39.63;21.48;;;;;;;6.84;100.00;101906.47;10243907;28;20098;-83
2022/06/02 02:42:06;;;;;;;43.03;23.48;;;;;;;6.75;100.00;101904.13;10275640;28;20111;-84
2022/06/02 02:47:09;;;;;;;40.67;23.73;;;;;;;6.72;100.00;101907.25;10255498;28;20062;-83
2022/06/02 02:52:22;;;;;;;46.50;23.98;;;;;;;6.69;100.00;101908.50;10265235;28;20136;-83
2022/06/02 02:57:42;;;;;;;39.72;23.90;;;;;;;6.67;100.00;101905.97;10290086;28;20070;-84
2022/06/02 03:02:58;;;;;;;40.28;23.92;;;;;;;6.61;100.00;101914.97;10307670;28;20043;-82
2022/06/02 03:08:03;;;;;;;41.45;25.38;;;;;;;6.55;100.00;101904.88;10275966;28;20078;-83
2022/06/02 03:13:04;;;;;;;45.15;24.35;;;;;;;6.53;100.00;101919.78;10244094;28;20039;-82
2022/06/02 03:18:31;;;;;;;46.97;25.60;;;;;;;6.47;100.00;101921.47;10273800;28;20110;-84
2022/06/02 03:23:50;;;;;;;44.20;26.70;;;;;;;6.47;100.00;101916.81;10251493;28;20038;-83
2022/06/02 03:29:14;;;;;;;55.08;32.38;;;;;;;6.43;100.00;101921.00;10253029;29;20043;-82
2022/06/02 03:34:31;;;;;;;63.80;35.70;;;;;;;6.28;100.00;101900.28;10235247;29;20039;-82
2022/06/02 03:39:51;;;;;;;63.70;38.88;;;;;;;6.34;100.00;101926.81;10234872;28;20118;-82
2022/06/02 03:45:10;;;;;;;71.78;39.60;;;;;;;6.33;100.00;101925.16;10259658;29;20047;-81
2022/06/02 03:50:29;;;;;;;74.82;42.38;;;;;;;6.23;100.00;101920.88;10242487;28;20051;-83
2022/06/02 03:55:58;;;;;;;78.00;42.75;;;;;;;6.26;100.00;101925.94;10257040;28;20081;-85
2022/06/02 04:01:04;;;;;;;70.68;40.05;;;;;;;6.41;100.00;101938.66;10251817;28;20038;-84
2022/06/02 04:06:20;;;;;;;66.50;36.72;;;;;;;6.52;100.00;101951.78;10250964;28;20051;-81
2022/06/02 04:17:14;;;;;;;47.47;27.88;;;;;;;6.80;100.00;101950.88;10284475;28;20473;-84
2022/06/02 04:22:24;;;;;;;45.78;27.85;;;;;;;6.99;100.00;101961.09;10280766;28;20035;-83
2022/06/02 04:27:46;;;;;;;38.97;25.08;;;;;;;7.04;100.00;101961.28;10298898;28;20039;-85
2022/06/02 04:32:57;;;;;;;43.08;25.35;;;;;;;7.12;100.00;101971.25;10298825;28;20126;-81
2022/06/02 04:38:19;;;;;;;33.85;21.05;;;;;;;7.23;100.00;101964.31;10280391;28;20066;-81
2022/06/02 04:43:39;;;;;;;31.48;21.30;;;;;;;7.12;100.00;101935.63;10280512;28;20042;-81
2022/06/02 04:49:03;;;;;;;35.60;20.67;;;;;;;7.46;100.00;101981.28;10279366;28;20031;-82
2022/06/02 04:54:25;;;;;;;26.13;17.48;;;;;;;7.57;100.00;101989.94;10234348;28;20047;-82
2022/06/02 04:59:39;;;;;;;24.45;16.50;;;;;;;7.71;100.00;101988.06;10279921;28;20356;-83
2022/06/02 05:04:51;;;;;;;22.23;15.52;;;;;;;7.92;100.00;101989.75;10224517;29;20047;-83
2022/06/02 05:10:00;;;;;;;22.90;15.95;;;;;;;8.02;100.00;101990.19;10253787;28;20045;-84
2022/06/02 05:15:52;;;;;;;24.80;14.95;;;;;;;8.22;100.00;101995.69;10264490;28;20099;-85
2022/06/02 05:21:11;;;;;;;22.52;16.15;;;;;;;8.34;100.00;102001.41;10238285;28;20118;-84
2022/06/02 05:26:46;;;;;;;20.45;14.05;;;;;;;8.55;100.00;102003.94;10278292;28;20450;-85
2022/06/02 05:32:20;;;;;;;19.27;12.85;;;;;;;8.66;100.00;102003.31;10277837;28;20039;-84
2022/06/02 05:37:26;;;;;;;15.27;12.48;;;;;;;8.92;100.00;102026.25;10261275;28;20070;-84
2022/06/02 05:42:44;;;;;;;15.60;10.40;;;;;;;9.08;100.00;102017.56;10261985;28;20399;-86
2022/06/02 05:47:57;;;;;;;10.68;8.35;;;;;;;9.37;100.00;102025.50;10251310;28;20066;-85
2022/06/02 05:53:07;;;;;;;12.70;9.05;;;;;;;9.61;100.00;102015.63;10237202;29;20046;-86
2022/06/02 05:58:31;;;;;;;9.45;7.30;;;;;;;10.04;100.00;102032.28;10222747;29;20039;-84
2022/06/02 06:03:53;;;;;;;9.65;7.35;;;;;;;10.43;100.00;102032.22;10238775;28;20043;-84
2022/06/02 06:09:08;;;;;;;10.98;6.82;;;;;;;10.80;100.00;102035.06;10261574;28;20039;-86
2022/06/02 06:14:29;;;;;;;9.88;6.78;;;;;;;10.98;100.00;102018.56;10236307;29;20439;-85
2022/06/02 06:19:52;;;;;;;7.60;4.93;;;;;;;11.44;100.00;102036.44;10238587;29;20070;-80
2022/06/02 06:25:09;;;;;;;6.40;3.85;;;;;;;11.61;100.00;102030.28;10237563;29;20074;-78
2022/06/02 06:30:09;;;;;;;5.20;3.83;;;;;;;11.93;100.00;102043.88;10241808;28;20061;-80
2022/06/02 06:35:35;;;;;;;4.93;3.13;;;;;;;12.11;100.00;102049.31;10253865;28;20467;-82
2022/06/02 06:41:08;;;;;;;4.13;3.17;;;;;;;12.32;100.00;102046.03;10238943;28;20047;-82
2022/06/02 06:46:09;;;;;;;3.67;2.53;;;;;;;12.28;100.00;102042.06;10255050;28;20039;-80
2022/06/02 06:51:47;;;;;;;4.82;2.53;;;;;;;12.53;100.00;102046.53;10265948;28;20459;-77
2022/06/02 06:56:57;;;;;;;5.03;1.85;;;;;;;12.65;100.00;102044.63;10328648;28;20082;-79
2022/06/02 07:02:20;;;;;;;4.55;2.00;;;;;;;12.70;100.00;102049.41;10283288;28;20065;-80
2022/06/02 07:07:48;;;;;;;5.88;1.83;;;;;;;13.08;100.00;102067.41;10281956;28;20055;-79
2022/06/02 07:12:58;;;;;;;6.25;1.83;;;;;;;13.08;100.00;102056.38;10229685;28;20070;-80
2022/06/02 07:18:12;;;;;;;2.78;1.50;;;;;;;13.21;100.00;102050.59;10223822;28;20109;-76
2022/06/02 07:23:16;;;;;;;3.65;2.00;;;;;;;13.36;100.00;102052.88;10236991;28;20077;-82
2022/06/02 07:28:50;;;;;;;4.90;1.77;;;;;;;13.91;100.00;102066.16;10222504;28;20038;-79
2022/06/02 07:34:30;;;;;;;5.03;2.15;;;;;;;14.41;100.00;102074.81;10272069;28;20054;-79
2022/06/02 07:39:43;;;;;;;2.42;1.30;;;;;;;14.41;100.00;102080.34;10253938;28;20047;-79
2022/06/02 07:45:13;;;;;;;4.00;1.13;;;;;;;14.08;100.00;102079.19;10273548;28;20046;-79
2022/06/02 07:50:25;;;;;;;2.03;1.30;;;;;;;14.28;100.00;102078.72;10253013;28;20071;-78
2022/06/02 07:55:42;;;;;;;3.25;1.25;;;;;;;14.07;100.00;102089.41;10239266;28;20466;-79
2022/06/02 08:00:49;;;;;;;4.43;1.30;;;;;;;13.92;100.00;102091.91;10239696;28;20047;-80
2022/06/02 08:06:02;;;;;;;;;;;;;;;14.17;100.00;102019.53;10236430;28;20043;-78
2022/06/02 08:11:33;;;;;;;4.20;1.20;;;;;;;14.58;100.00;102100.63;10260442;28;19933;-78
2022/06/02 08:17:04;;;;;;;4.10;1.23;;;;;;;14.84;100.00;102107.44;10243520;28;20050;-80
2022/06/02 08:22:06;;;;;;;2.80;1.30;;;;;;;14.93;100.00;102097.56;10252719;28;20043;-83
2022/06/02 08:27:40;;;;;;;4.50;2.22;;;;;;;15.31;100.00;102114.47;10235613;28;20043;-78
2022/06/02 08:32:56;;;;;;;3.10;1.10;;;;;;;15.47;100.00;102110.81;10280216;28;20047;-81
2022/06/02 08:38:23;;;;;;;4.13;1.60;;;;;;;15.32;100.00;102121.72;10281250;28;20050;-79
2022/06/02 08:43:49;;;;;;;2.45;1.20;;;;;;;14.84;100.00;102145.38;10297550;28;20089;-81
2022/06/02 08:49:01;;;;;;;3.97;1.13;;;;;;;14.76;100.00;102140.25;10278744;28;20047;-81
2022/06/02 08:54:10;;;;;;;1.45;1.20;;;;;;;15.95;100.00;102133.38;10279699;28;20039;-79
2022/06/02 08:59:29;;;;;;;2.33;1.23;;;;;;;16.47;100.00;102135.59;10264278;28;20539;-81
2022/06/02 09:05:07;;;;;;;5.07;1.92;;;;;;;15.93;100.00;102146.69;10297426;28;20532;-82
2022/06/02 09:10:41;;;;;;;4.05;1.30;;;;;;;15.87;100.00;102150.50;10296450;28;20047;-81
2022/06/02 09:16:29;;;;;;;2.25;1.30;;;;;;;15.86;100.00;102146.88;10263902;28;20039;-79
2022/06/02 09:21:51;;;;;;;2.42;1.10;;;;;;;16.21;100.00;102147.56;10041454;29;20105;-79
2022/06/02 09:27:17;;;;;;;3.25;1.38;;;;;;;16.88;97.80;102135.16;10218801;29;20053;-77
2022/06/02 09:32:39;;;;;;;3.08;1.02;;;;;;;16.41;97.87;102146.94;10256006;29;20043;-78
2022/06/02 09:38:07;;;;;;;2.47;1.13;;;;;;;16.56;98.61;102149.88;10238488;28;20450;-82
2022/06/02 09:43:26;;;;;;;1.70;1.20;;;;;;;17.32;95.50;102135.75;10255348;29;20116;-82
2022/06/02 09:48:56;;;;;;;4.03;1.17;;;;;;;17.02;93.46;102147.50;10285592;28;20468;-85
2022/06/02 09:54:14;;;;;;;2.40;1.10;;;;;;;16.24;95.50;102153.41;10256827;28;20055;-81
2022/06/02 09:59:28;;;;;;;2.03;1.05;;;;;;;15.81;97.09;102074.63;10263753;28;20117;-82
2022/06/02 10:04:50;;;;;;;2.95;1.20;;;;;;;17.33;93.16;102158.84;10277853;28;20051;-80
2022/06/02 10:09:54;;;;;;;1.40;0.88;;;;;;;17.78;88.62;102148.19;10294121;28;20106;-79
2022/06/02 10:15:16;;;;;;;3.30;1.15;;;;;;;18.04;87.34;102146.38;10286399;28;20058;-78
2022/06/02 10:20:37;;;;;;;2.22;0.90;;;;;;;17.86;89.82;102151.34;10253835;29;20111;-80
2022/06/02 10:26:03;;;;;;;3.30;1.40;;;;;;;18.41;88.39;102150.94;10239268;28;20044;-80
2022/06/02 10:31:16;;;;;;;2.05;1.25;;;;;;;19.04;87.10;102150.69;10221158;28;20039;-78
2022/06/02 10:36:35;;;;;;;3.17;1.10;;;;;;;18.94;84.45;102148.78;10276435;28;20090;-81
2022/06/02 10:41:57;;;;;;;3.72;1.20;;;;;;;18.09;87.00;102166.75;10275645;28;20069;-79
2022/06/02 10:47:23;;;;;;;3.10;1.00;;;;;;;18.25;87.93;102164.88;10296120;28;20090;-81
2022/06/02 10:52:37;;;;;;;7.47;1.67;;;;;;;18.63;84.54;102162.69;10286623;28;20078;-83
2022/06/02 10:57:45;;;;;;;1.45;0.93;;;;;;;18.56;83.41;102159.31;10294251;28;20066;-80
2022/06/02 11:03:11;;;;;;;4.72;1.30;;;;;;;18.29;84.62;102160.41;10276415;28;20046;-77
2022/06/02 11:08:48;;;;;;;2.95;1.35;;;;;;;18.73;80.44;102150.72;10253224;29;20066;-77
2022/06/02 11:13:57;;;;;;;;;;;;;;;19.43;82.22;102155.66;10252603;29;20090;-80
2022/06/02 11:19:19;;;;;;;2.20;0.98;;;;;;;19.66;80.01;102145.84;10271105;28;19926;-82
2022/06/02 11:24:41;;;;;;;3.22;1.20;;;;;;;18.99;80.44;102145.13;10293408;28;20094;-82
2022/06/02 11:30:13;;;;;;;5.18;1.00;;;;;;;19.63;78.00;102127.66;10292868;28;20394;-80
2022/06/02 11:35:25;;;;;;;5.75;2.33;;;;;;;20.34;76.33;102126.50;10292313;28;20047;-81
2022/06/02 11:40:43;;;;;;;3.58;1.00;;;;;;;19.69;75.11;102120.94;10259483;28;20066;-82
2022/06/02 11:46:12;;;;;;;5.20;1.00;;;;;;;19.69;76.47;102128.50;10273992;28;20043;-83
2022/06/02 11:51:32;;;;;;;2.63;1.20;;;;;;;20.69;74.26;102120.94;10286002;28;20061;-81
2022/06/02 11:56:33;;;;;;;1.67;1.20;;;;;;;21.82;69.81;102109.38;10274435;28;20046;-85
2022/06/02 12:01:48;;;;;;;4.35;1.45;;;;;;;20.57;71.22;102112.91;10293097;28;20047;-85
2022/06/02 12:07:05;;;;;;;4.13;1.52;;;;;;;20.11;74.75;102114.06;10299165;28;20039;-82
2022/06/02 12:12:45;;;;;;;2.63;1.27;;;;;;;20.22;73.40;102112.03;10281945;28;20121;-81
2022/06/02 12:18:19;;;;;;;3.55;1.15;;;;;;;21.58;66.80;102091.75;10267996;28;20050;-83
2022/06/02 12:23:59;;;;;;;2.25;0.82;;;;;;;22.56;63.03;102067.63;10298811;28;20051;-83
2022/06/02 12:29:16;;;;;;;2.78;1.10;;;;;;;23.85;61.64;102071.59;10244913;29;20039;-85
2022/06/02 12:34:36;;;;;;;3.72;1.33;;;;;;;24.15;63.23;102080.47;10264835;28;20039;-81
2022/06/02 12:40:11;;;;;;;5.68;1.73;;;;;;;24.64;59.71;102073.09;10279653;28;20062;-85
2022/06/02 12:45:24;;;;;;;3.05;1.10;;;;;;;24.71;58.64;102079.09;10298541;28;20046;-83
2022/06/02 12:50:48;;;;;;;1.45;0.98;;;;;;;24.01;59.24;102082.50;10296831;28;20049;-84
2022/06/02 12:56:04;;;;;;;1.73;1.20;;;;;;;23.69;60.85;102087.09;10296912;28;20047;-84
2022/06/02 13:01:42;;;;;;;3.58;1.23;;;;;;;23.16;62.26;102097.72;10279186;28;20045;-83
2022/06/02 13:07:20;;;;;;;4.93;1.10;;;;;;;22.81;61.03;102089.94;10297170;28;20098;-86
2022/06/02 13:12:51;;;;;;;3.63;1.05;;;;;;;23.79;58.98;102078.47;10284612;28;20043;-70
2022/06/02 13:18:10;;;;;;;3.00;0.98;;;;;;;23.10;60.07;102070.88;10274317;28;20431;-84
2022/06/02 13:23:16;;;;;;;2.45;1.10;;;;;;;23.34;59.58;102086.72;10265063;28;20043;-84
2022/06/02 13:28:17;;;;;;;;;;;;;;;22.64;59.54;102082.94;10274127;28;20039;-84
2022/06/02 13:33:28;;;;;;;2.42;1.20;;;;;;;23.95;60.75;102085.41;10301713;28;19918;-87
2022/06/02 13:38:57;;;;;;;5.80;1.75;;;;;;;24.75;56.76;102068.84;10279633;28;20050;-85
2022/06/02 13:44:07;;;;;;;2.10;1.17;;;;;;;22.72;60.54;102011.22;10280254;28;20054;-83
2022/06/02 13:49:31;;;;;;;1.75;0.95;;;;;;;22.86;62.24;102082.25;10277134;28;20058;-85
2022/06/02 14:00:28;;;;;;;4.30;1.00;;;;;;;25.34;57.95;102067.81;10295980;28;20050;-87
2022/06/02 14:05:51;;;;;;;3.90;1.02;;;;;;;25.09;53.68;102044.81;10278032;28;20045;-88
2022/06/02 14:11:10;;;;;;;3.70;1.00;;;;;;;25.17;53.12;102035.56;10278073;28;20054;-76
2022/06/02 14:16:35;;;;;;;2.05;0.90;;;;;;;25.36;52.98;102041.00;10293492;28;20050;-83
2022/06/02 14:21:48;;;;;;;3.53;0.75;;;;;;;24.08;56.71;102057.56;10277733;28;20038;-83
2022/06/02 14:27:29;;;;;;;3.08;1.00;;;;;;;25.10;52.96;102035.22;10275308;28;20089;-81
2022/06/02 14:32:37;;;;;;;2.08;1.20;;;;;;;25.43;54.09;102046.16;10090678;29;20049;-79
2022/06/02 14:37:46;;;;;;;3.13;1.00;;;;;;;24.58;55.66;102068.75;10222645;28;20039;-80
2022/06/02 14:43:14;;;;;;;1.63;0.98;;;;;;;22.50;59.07;102073.63;10274649;28;20046;-81
2022/06/02 14:48:20;;;;;;;2.65;0.70;;;;;;;22.46;62.93;102089.41;10252455;28;20062;-82
2022/06/02 14:53:30;;;;;;;;;;;;;;;23.91;56.82;102061.88;10274076;28;20050;-80
2022/06/02 14:58:38;;;;;;;1.77;0.70;;;;;;;25.10;54.60;102060.59;10293293;28;19918;-73
2022/06/02 15:04:15;;;;;;;3.03;0.90;;;;;;;23.14;56.29;102066.31;10238957;28;20039;-74
2022/06/02 15:09:23;;;;;;;1.60;1.00;;;;;;;23.42;57.82;102077.56;10238278;28;20055;-73
2022/06/02 15:14:30;;;;;;;3.88;1.20;;;;;;;22.63;59.10;102088.84;10252545;29;20039;-73
2022/06/02 15:19:49;;;;;;;;;;;;;;;22.62;59.71;102088.00;10289515;28;20510;-73
2022/06/02 15:24:57;;;;;;;3.30;1.08;;;;;;;24.35;56.09;102071.53;10292475;28;20021;-75
2022/06/02 15:30:34;;;;;;;3.97;1.08;;;;;;;22.24;59.68;102092.84;10275980;28;20291;-73
2022/06/02 15:35:50;;;;;;;;;;;;;;;20.79;62.19;102100.44;10291016;28;20043;-73
2022/06/02 15:40:53;;;;;;;2.25;1.15;;;;;;;20.67;64.73;102110.06;10300945;28;19922;-73
2022/06/02 15:46:12;;;;;;;3.05;0.90;;;;;;;21.35;62.02;102091.44;10298524;28;20043;-73
2022/06/02 15:51:37;;;;;;;4.40;1.00;;;;;;;23.12;59.23;102082.63;10249751;28;20086;-73
2022/06/02 15:57:11;;;;;;;3.33;1.25;;;;;;;24.34;55.67;102063.41;10271877;28;20122;-73
2022/06/02 16:02:50;;;;;;;3.75;1.27;;;;;;;25.15;52.12;102051.16;10268610;28;20481;-74
2022/06/02 16:07:51;;;;;;;1.95;1.08;;;;;;;25.55;50.41;102054.81;10257914;28;20042;-72
2022/06/02 16:13:03;;;;;;;2.88;1.02;;;;;;;25.24;51.58;102040.78;10271643;28;20043;-73
2022/06/02 16:18:07;;;;;;;2.90;1.75;;;;;;;24.94;51.67;102039.63;10268777;28;20098;-74
2022/06/02 16:23:35;;;;;;;3.60;0.95;;;;;;;24.08;54.21;102060.38;10270717;28;20054;-73
2022/06/02 16:28:48;;;;;;;4.25;1.23;;;;;;;23.10;53.00;102051.22;10281621;28;20074;-73
2022/06/02 16:34:06;;;;;;;5.38;1.25;;;;;;;22.47;54.06;102051.78;10259147;28;20130;-72
2022/06/02 16:39:34;;;;;;;1.83;0.95;;;;;;;21.43;57.52;102074.00;10261012;28;20039;-73
2022/06/02 16:45:03;;;;;;;6.10;1.30;;;;;;;20.62;57.33;102070.91;10275533;28;20066;-73
2022/06/02 16:50:16;;;;;;;4.28;1.20;;;;;;;20.05;59.30;102084.47;10291294;28;20067;-72
2022/06/02 16:56:08;;;;;;;3.75;1.00;;;;;;;19.17;62.32;102099.06;10314283;28;20053;-72
2022/06/02 17:01:30;;;;;;;4.53;1.45;;;;;;;18.93;64.69;102096.88;10175274;28;20409;-73
2022/06/02 17:06:31;;;;;;;3.40;1.30;;;;;;;18.35;64.78;102100.75;10292436;28;20047;-73
2022/06/02 17:11:37;;;;;;;7.22;1.67;;;;;;;17.94;67.02;102109.03;10296533;28;20050;-72
2022/06/02 17:16:59;;;;;;;7.32;0.98;;;;;;;17.55;68.01;102106.63;10301604;28;20042;-72
2022/06/02 17:22:19;;;;;;;4.38;1.30;;;;;;;17.34;71.90;102114.03;10332628;28;20051;-72
2022/06/02 17:27:48;;;;;;;2.35;1.15;;;;;;;16.09;71.79;101964.38;10314616;28;20042;-72
2022/06/02 17:33:13;;;;;;;3.75;1.17;;;;;;;16.89;73.05;102120.16;10312292;28;20177;-72
2022/06/02 17:38:22;;;;;;;4.63;1.40;;;;;;;16.62;75.90;102125.72;10293945;28;20120;-72
2022/06/02 17:43:25;;;;;;;3.80;1.52;;;;;;;16.39;74.75;102126.88;10293842;28;20035;-72
2022/06/02 17:48:38;;;;;;;3.30;1.80;;;;;;;16.25;76.93;102127.34;10292901;28;20054;-72
2022/06/02 17:53:44;;;;;;;3.15;1.10;;;;;;;16.12;75.20;102127.72;10295609;28;20081;-71
2022/06/02 17:58:47;;;;;;;5.22;1.25;;;;;;;16.01;74.02;102115.66;10300054;28;20116;-72
2022/06/02 18:03:58;;;;;;;2.28;0.90;;;;;;;15.88;74.59;102128.03;10294339;28;20070;-72
2022/06/02 18:09:34;;;;;;;1.75;0.80;;;;;;;15.77;73.07;102120.66;10278021;28;20527;-72
2022/06/02 18:15:02;;;;;;;4.53;1.00;;;;;;;15.61;74.70;102116.84;10258039;28;20051;-72
2022/06/02 18:20:24;;;;;;;3.78;0.93;;;;;;;15.52;78.37;102133.09;10294289;28;20057;-72
2022/06/02 18:25:45;;;;;;;2.90;0.98;;;;;;;15.49;79.09;102152.19;10440648;23;20414;-77
2022/06/02 18:31:15;;;;;;;1.70;1.05;;;;;;;15.34;79.84;102134.25;10372041;28;20059;-77
2022/06/02 18:36:54;;;;;;;3.53;0.90;;;;;;;14.84;77.43;102076.06;10370198;28;20034;-77
2022/06/02 18:42:13;;;;;;;1.60;1.00;;;;;;;15.03;79.26;102116.31;10360137;28;20046;-77
2022/06/02 18:47:36;;;;;;;3.00;1.30;;;;;;;14.91;78.42;102124.72;10370913;28;20026;-77
2022/06/02 18:52:49;;;;;;;2.13;1.10;;;;;;;14.78;79.43;102125.06;10349788;28;20056;-77
2022/06/02 18:58:20;;;;;;;1.65;0.80;;;;;;;14.63;83.29;102133.94;10370627;28;20524;-77
2022/06/02 19:03:28;;;;;;;1.58;0.95;;;;;;;14.52;83.75;102140.38;10368217;28;20088;-77
2022/06/02 19:14:37;;;;;;;4.28;0.90;;;;;;;14.12;86.99;102139.38;10362826;28;20034;-77
2022/06/02 19:20:06;;;;;;;2.97;1.20;;;;;;;14.09;91.26;102163.94;10337096;28;20045;-77
2022/06/02 19:25:35;;;;;;;3.53;1.02;;;;;;;13.91;92.51;102168.59;10368560;28;20449;-77
2022/06/02 19:30:54;;;;;;;3.42;1.27;;;;;;;13.78;97.57;102173.56;10356469;28;20051;-77
2022/06/02 19:36:57;;;;;;;3.00;1.85;;;;;;;13.56;100.00;102188.03;10346931;28;20131;-77
2022/06/02 19:42:06;;;;;;;5.70;1.60;;;;;;;13.38;100.00;102182.63;10300234;28;20082;-77
2022/06/02 19:47:30;;;;;;;3.33;1.60;;;;;;;13.33;100.00;102194.41;10311692;28;20042;-77
2022/06/02 19:52:36;;;;;;;5.65;1.67;;;;;;;13.18;100.00;102197.63;10341528;28;20049;-77
2022/06/02 19:57:43;;;;;;;4.43;1.85;;;;;;;13.04;100.00;102205.31;10324438;28;20065;-76
2022/06/02 20:02:51;;;;;;;3.05;2.08;;;;;;;12.95;100.00;102215.03;10277861;28;20039;-78
2022/06/02 20:08:01;;;;;;;6.38;2.53;;;;;;;12.82;100.00;102216.09;10308114;28;20114;-82
2022/06/02 20:13:30;;;;;;;5.65;1.88;;;;;;;12.67;100.00;102215.66;10336315;28;20101;-79
2022/06/02 20:18:34;;;;;;;4.95;2.45;;;;;;;12.51;100.00;102217.19;10292383;28;20061;-80
2022/06/02 20:23:47;;;;;;;4.20;2.30;;;;;;;12.37;100.00;102215.69;10298670;28;20037;-79
2022/06/02 20:28:52;;;;;;;3.95;1.55;;;;;;;12.18;100.00;102209.38;10327419;28;20050;-78
2022/06/02 20:34:17;;;;;;;3.00;1.90;;;;;;;12.06;100.00;102220.34;10278067;28;20050;-79
2022/06/02 20:40:00;;;;;;;4.65;1.88;;;;;;;11.95;100.00;102223.84;10322236;28;20046;-79
2022/06/02 20:45:42;;;;;;;6.00;2.20;;;;;;;11.74;100.00;102217.72;10359079;28;20043;-77
2022/06/02 20:50:49;;;;;;;3.67;1.80;;;;;;;11.58;100.00;102207.28;10292337;28;20153;-78
2022/06/02 20:55:54;;;;;;;3.13;1.90;;;;;;;11.63;100.00;102227.56;10337207;28;20061;-77
2022/06/02 21:00:57;;;;;;;2.90;1.80;;;;;;;11.58;100.00;102226.59;10309816;28;20039;-78
2022/06/02 21:06:11;;;;;;;3.47;2.08;;;;;;;11.57;100.00;102216.63;10324183;28;20042;-78
2022/06/02 21:11:19;;;;;;;3.97;1.58;;;;;;;11.49;100.00;102226.88;10320399;28;20026;-77
2022/06/02 21:16:27;;;;;;;7.38;2.20;;;;;;;11.39;100.00;102222.94;10295112;28;20041;-78
2022/06/02 21:21:46;;;;;;;3.65;2.22;;;;;;;11.22;100.00;102217.16;10334163;28;20045;-78
2022/06/02 21:26:56;;;;;;;6.13;2.85;;;;;;;11.16;100.00;102220.81;10321532;28;20049;-78
2022/06/02 21:32:12;;;;;;;8.75;2.20;;;;;;;11.20;100.00;102205.53;10320159;28;20122;-78
2022/06/02 21:37:12;;;;;;;7.13;2.27;;;;;;;11.17;100.00;102222.53;10294471;28;20102;-78
2022/06/02 21:42:21;;;;;;;4.22;3.03;;;;;;;11.09;100.00;102210.69;10263180;28;20403;-78
2022/06/02 21:47:30;;;;;;;7.65;2.88;;;;;;;11.07;100.00;102220.25;10279796;28;20098;-77
2022/06/02 21:52:31;;;;;;;4.45;2.97;;;;;;;11.05;100.00;102206.69;10299792;28;20043;-79
2022/06/02 21:57:53;;;;;;;5.82;2.95;;;;;;;11.00;100.00;102206.56;10271596;28;20380;-78
2022/06/02 22:03:17;;;;;;;5.63;2.75;;;;;;;10.96;100.00;102210.81;10298101;28;20102;-78
2022/06/02 22:08:35;;;;;;;7.30;3.05;;;;;;;10.91;100.00;102205.13;10315613;28;20051;-80
2022/06/02 22:13:39;;;;;;;4.93;3.08;;;;;;;10.84;100.00;102207.09;10304983;28;20054;-78
2022/06/02 22:18:55;;;;;;;7.00;2.95;;;;;;;10.67;100.00;102185.59;10292945;28;20073;-78
2022/06/02 22:24:04;;;;;;;9.23;2.88;;;;;;;10.67;100.00;102202.13;10289572;28;20034;-78
2022/06/02 22:29:10;;;;;;;6.13;3.10;;;;;;;10.59;100.00;102202.41;10320644;28;20035;-78
2022/06/02 22:34:11;;;;;;;9.00;3.30;;;;;;;10.48;100.00;102214.97;10304448;28;20035;-78
2022/06/02 22:39:49;;;;;;;7.97;3.25;;;;;;;10.35;100.00;102211.44;10322509;28;20137;-78
2022/06/02 22:45:05;;;;;;;7.97;3.63;;;;;;;10.20;100.00;102200.69;10319558;28;20077;-78
2022/06/02 22:50:24;;;;;;;6.00;3.10;;;;;;;10.12;100.00;102209.19;10315915;28;20049;-78
2022/06/02 22:55:27;;;;;;;8.10;3.47;;;;;;;10.02;100.00;102207.72;10334123;28;20442;-78
2022/06/02 23:00:47;;;;;;;5.65;3.53;;;;;;;9.89;100.00;102200.38;10335878;28;20042;-78
2022/06/02 23:06:06;;;;;;;6.80;4.13;;;;;;;9.85;100.00;102201.03;10302614;28;20080;-78
2022/06/02 23:11:43;;;;;;;7.82;4.95;;;;;;;9.73;100.00;102203.59;10320810;28;20066;-78
2022/06/02 23:17:13;;;;;;;7.60;3.83;;;;;;;9.63;100.00;102205.97;10340538;28;20507;-78
2022/06/02 23:22:47;;;;;;;10.32;4.35;;;;;;;9.54;100.00;102213.59;10330688;28;20498;-78
2022/06/02 23:28:12;;;;;;;7.07;4.20;;;;;;;9.48;100.00;102211.72;10313611;28;20061;-80
2022/06/02 23:33:24;;;;;;;7.15;4.45;;;;;;;9.41;100.00;102214.47;10320610;28;20043;-78
2022/06/02 23:39:02;;;;;;;9.48;4.88;;;;;;;9.34;100.00;102212.78;10319343;28;20043;-78
2022/06/02 23:44:38;;;;;;;12.00;4.88;;;;;;;9.28;100.00;102203.50;10324494;28;20110;-78
2022/06/02 23:50:03;;;;;;;11.43;5.32;;;;;;;9.18;100.00;102197.63;10302538;28;20444;-77
2022/06/02 23:55:10;;;;;;;9.65;4.75;;;;;;;9.20;100.00;102200.97;10325367;28;20089;-77
